Etusivu
METAR-TAF:

METAR-TAF

Lentoasemat :

Skavstan lentoasema

Tukholma-Skavsta, Ruotsi

Leveyspiiri: 58-47N, Pituuspiiri: 016-55E, korkeus merenpinnasta: 43 m

Tämänhetkinen sää

Tämä raportti tehtiin 44 minuuttia sitten, kello 22.50 UTC
Tuuli 5 kn koillisesta, vaihdellen pohjoisen ja idän/koillisen välillä
Lämpötila 0°C
Kosteus 93%
Ilmanpaine 1033 hPa
Näkyvyys 10 km tai enemmän
Muutamia pilviä 800 ft:n korkeudessa
Hajonneita pilviä 2000 ft:n korkeudessa

METAR: ESKN 202250Z 04005KT 360V070 9999 FEW008 BKN020 M00/M01 Q1033 R08/19//95

Aika: 00:34 (23:34 UTC)

Sääennuste

Tämä raportti tehtiin 6 tuntia ja 4 minuuttia sitten, kello 17.30 UTC
Ennuste voimassa 20. päivästä klo 18 UTC - 21. päivään klo 18 UTC
Tuuli 6 kn pohjoisesta/koillisesta
Näkyvyys 10 km tai enemmän
Hajonneita pilviä 2000 ft:n korkeudessa
Ajoittain
20. päivästä klo 21 UTC - 21. päivään klo 12 UTC
Hajonneita pilviä 1000 ft:n korkeudessa

TAF: ESKN 201730Z 2018/2118 02006KT 9999 BKN020 TEMPO 2021/2112 BKN010

Säähavainnot ja -ennusteet yli 4000 lentoasemalta (METAR- ja TAF-raportit).

Käytössä olevat sääasemat on merkitty karttaan keltaisilla ja punaisilla pisteillä.

Aseta hiiri pisteen päälle nähdäksesi sääaseman nimen.

Klikkaa sitten nähdäksesi säähavainnot ja -ennusteet.

Kartan vaihtaminen: klikkaa mustalla rastilla varustettuja vihreitä pisteitä, niin voit zoomata sisään; viivalla varustettua vihreää pistettä, niin voit zoomata ulos tai vihreitä nuolia, niin pääset viereisille kartoille.


METAR-TAF: